sensor_id;sensor_type;location;lat;lon;timestamp;pressure;altitude;pressure_sealevel;temperature;humidity
68329;BME280;55182;56.864;60.554;2022-11-15T00:00:57;75931.84;;;-143.60;78.04
68329;BME280;55182;56.864;60.554;2022-11-15T00:03:41;75933.84;;;-143.60;78.00
68329;BME280;55182;56.864;60.554;2022-11-15T00:06:24;75935.84;;;-143.60;78.10
68329;BME280;55182;56.864;60.554;2022-11-15T00:09:08;75939.88;;;-143.60;78.17
68329;BME280;55182;56.864;60.554;2022-11-15T00:11:52;75949.91;;;-143.60;77.38
68329;BME280;55182;56.864;60.554;2022-11-15T00:14:36;75951.94;;;-143.60;77.32
68329;BME280;55182;56.864;60.554;2022-11-15T00:17:20;75945.91;;;-143.60;77.50
68329;BME280;55182;56.864;60.554;2022-11-15T00:20:04;75966.00;;;-143.60;77.79
68329;BME280;55182;56.864;60.554;2022-11-15T00:22:48;75964.00;;;-143.60;78.10
68329;BME280;55182;56.864;60.554;2022-11-15T00:25:32;75978.06;;;-143.60;77.32
68329;BME280;55182;56.864;60.554;2022-11-15T00:28:16;75974.03;;;-143.60;77.35
68329;BME280;55182;56.864;60.554;2022-11-15T00:31:01;75986.09;;;-143.60;77.60
68329;BME280;55182;56.864;60.554;2022-11-15T00:33:44;75986.09;;;-143.60;77.47
68329;BME280;55182;56.864;60.554;2022-11-15T00:36:28;75984.09;;;-143.60;77.46
68329;BME280;55182;56.864;60.554;2022-11-15T00:39:12;75986.09;;;-143.60;77.18
68329;BME280;55182;56.864;60.554;2022-11-15T00:41:56;75986.09;;;-143.60;77.08
68329;BME280;55182;56.864;60.554;2022-11-15T00:44:40;75992.13;;;-143.60;76.95
68329;BME280;55182;56.864;60.554;2022-11-15T00:47:24;75996.13;;;-143.60;77.01
68329;BME280;55182;56.864;60.554;2022-11-15T00:50:08;75998.16;;;-143.60;77.13
68329;BME280;55182;56.864;60.554;2022-11-15T00:52:52;75976.03;;;-143.60;77.21
68329;BME280;55182;56.864;60.554;2022-11-15T00:55:36;75992.13;;;-143.60;77.26
68329;BME280;55182;56.864;60.554;2022-11-15T00:58:20;75994.13;;;-143.60;77.03
68329;BME280;55182;56.864;60.554;2022-11-15T01:01:08;75998.16;;;-143.60;76.95
68329;BME280;55182;56.864;60.554;2022-11-15T01:03:52;75988.09;;;-143.60;76.99
68329;BME280;55182;56.864;60.554;2022-11-15T01:06:36;75996.13;;;-143.60;77.08
68329;BME280;55182;56.864;60.554;2022-11-15T01:09:20;76002.16;;;-143.60;76.95
68329;BME280;55182;56.864;60.554;2022-11-15T01:12:04;75996.13;;;-143.60;77.22
68329;BME280;55182;56.864;60.554;2022-11-15T01:14:49;75982.06;;;-143.60;76.87
68329;BME280;55182;56.864;60.554;2022-11-15T01:17:33;75986.09;;;-143.60;77.13
68329;BME280;55182;56.864;60.554;2022-11-15T01:20:17;75994.13;;;-143.60;77.34
68329;BME280;55182;56.864;60.554;2022-11-15T01:23:01;75982.06;;;-143.60;77.70
68329;BME280;55182;56.864;60.554;2022-11-15T01:25:45;75998.16;;;-143.60;77.58
68329;BME280;55182;56.864;60.554;2022-11-15T01:28:29;76000.16;;;-143.60;77.73
68329;BME280;55182;56.864;60.554;2022-11-15T01:31:15;75994.13;;;-143.60;77.58
68329;BME280;55182;56.864;60.554;2022-11-15T01:33:59;76002.16;;;-143.60;77.46
68329;BME280;55182;56.864;60.554;2022-11-15T01:36:43;76002.16;;;-143.60;77.54
68329;BME280;55182;56.864;60.554;2022-11-15T01:39:27;75990.09;;;-143.60;77.32
68329;BME280;55182;56.864;60.554;2022-11-15T01:42:14;75992.13;;;-143.60;77.39
68329;BME280;55182;56.864;60.554;2022-11-15T01:44:58;75982.06;;;-143.60;77.32
68329;BME280;55182;56.864;60.554;2022-11-15T01:47:46;75986.09;;;-143.60;77.26
68329;BME280;55182;56.864;60.554;2022-11-15T01:50:31;75986.09;;;-143.60;77.25
68329;BME280;55182;56.864;60.554;2022-11-15T01:53:16;75982.06;;;-143.60;77.65
68329;BME280;55182;56.864;60.554;2022-11-15T01:56:05;75970.00;;;-143.60;78.43
68329;BME280;55182;56.864;60.554;2022-11-15T01:58:49;75978.06;;;-143.60;77.92
68329;BME280;55182;56.864;60.554;2022-11-15T02:01:33;75982.06;;;-143.60;78.14
68329;BME280;55182;56.864;60.554;2022-11-15T02:04:27;75978.06;;;-143.60;77.20
68329;BME280;55182;56.864;60.554;2022-11-15T02:07:13;75974.03;;;-143.60;76.80
68329;BME280;55182;56.864;60.554;2022-11-15T02:09:59;75996.13;;;-143.60;76.88
68329;BME280;55182;56.864;60.554;2022-11-15T02:12:45;76002.16;;;-143.60;76.62
68329;BME280;55182;56.864;60.554;2022-11-15T02:15:31;76002.16;;;-143.60;76.60
68329;BME280;55182;56.864;60.554;2022-11-15T02:21:05;76010.19;;;-143.60;76.81
68329;BME280;55182;56.864;60.554;2022-11-15T02:38:28;76028.28;;;-143.60;76.98
68329;BME280;55182;56.864;60.554;2022-11-15T02:41:20;76020.25;;;-143.60;76.46
68329;BME280;55182;56.864;60.554;2022-11-15T02:44:08;76022.25;;;-143.60;76.62
68329;BME280;55182;56.864;60.554;2022-11-15T02:46:59;76022.25;;;-143.60;76.47
68329;BME280;55182;56.864;60.554;2022-11-15T02:49:52;76010.19;;;-143.60;75.99
68329;BME280;55182;56.864;60.554;2022-11-15T02:52:37;76030.31;;;-143.60;76.22
68329;BME280;55182;56.864;60.554;2022-11-15T02:55:26;76028.28;;;-143.60;75.78
68329;BME280;55182;56.864;60.554;2022-11-15T03:01:35;76032.31;;;-143.60;76.28
68329;BME280;55182;56.864;60.554;2022-11-15T03:07:32;76052.41;;;-143.60;75.93
68329;BME280;55182;56.864;60.554;2022-11-15T03:19:20;76050.38;;;-143.60;75.74
68329;BME280;55182;56.864;60.554;2022-11-15T03:22:07;76046.38;;;-143.60;76.36
68329;BME280;55182;56.864;60.554;2022-11-15T03:24:56;76046.38;;;-143.60;76.04
68329;BME280;55182;56.864;60.554;2022-11-15T03:27:41;76046.38;;;-143.60;75.74
68329;BME280;55182;56.864;60.554;2022-11-15T03:30:27;76048.38;;;-143.60;75.38
68329;BME280;55182;56.864;60.554;2022-11-15T03:33:12;76042.34;;;-143.60;75.27
68329;BME280;55182;56.864;60.554;2022-11-15T03:35:56;76046.38;;;-143.60;75.15
68329;BME280;55182;56.864;60.554;2022-11-15T03:38:40;76060.44;;;-143.60;75.37
68329;BME280;55182;56.864;60.554;2022-11-15T03:41:29;76058.44;;;-143.60;75.21
68329;BME280;55182;56.864;60.554;2022-11-15T03:47:23;76056.41;;;-143.60;76.19
68329;BME280;55182;56.864;60.554;2022-11-15T03:50:10;76070.50;;;-143.60;75.97
68329;BME280;55182;56.864;60.554;2022-11-15T03:52:55;76092.59;;;-143.60;76.20
68329;BME280;55182;56.864;60.554;2022-11-15T03:55:40;76080.53;;;-143.60;76.26
68329;BME280;55182;56.864;60.554;2022-11-15T03:58:24;76094.59;;;-143.60;76.67
68329;BME280;55182;56.864;60.554;2022-11-15T04:01:08;76088.56;;;-143.60;76.48
68329;BME280;55182;56.864;60.554;2022-11-15T04:03:52;76088.56;;;-143.60;75.88
68329;BME280;55182;56.864;60.554;2022-11-15T04:06:36;76106.66;;;-143.60;75.52
68329;BME280;55182;56.864;60.554;2022-11-15T04:09:20;76112.69;;;-143.60;75.73
68329;BME280;55182;56.864;60.554;2022-11-15T04:12:04;76102.63;;;-143.60;75.78
68329;BME280;55182;56.864;60.554;2022-11-15T04:14:48;76104.66;;;-143.60;76.07
68329;BME280;55182;56.864;60.554;2022-11-15T04:17:36;76100.63;;;-143.60;76.21
68329;BME280;55182;56.864;60.554;2022-11-15T04:20:28;76110.69;;;-143.60;76.09
68329;BME280;55182;56.864;60.554;2022-11-15T04:23:13;76126.75;;;-143.60;75.74
68329;BME280;55182;56.864;60.554;2022-11-15T04:25:58;76128.75;;;-143.60;76.57
68329;BME280;55182;56.864;60.554;2022-11-15T04:28:42;76110.69;;;-143.60;77.22
68329;BME280;55182;56.864;60.554;2022-11-15T04:31:26;76118.72;;;-143.60;75.96
68329;BME280;55182;56.864;60.554;2022-11-15T04:34:10;76118.72;;;-143.60;75.86
68329;BME280;55182;56.864;60.554;2022-11-15T04:36:54;76122.72;;;-143.60;75.59
68329;BME280;55182;56.864;60.554;2022-11-15T04:39:39;76102.63;;;-143.60;75.21
68329;BME280;55182;56.864;60.554;2022-11-15T04:42:23;76124.75;;;-143.60;74.66
68329;BME280;55182;56.864;60.554;2022-11-15T04:45:07;76118.72;;;-143.60;73.93
68329;BME280;55182;56.864;60.554;2022-11-15T04:47:51;76122.72;;;-143.60;74.68
68329;BME280;55182;56.864;60.554;2022-11-15T04:50:35;76122.72;;;-143.60;74.84
68329;BME280;55182;56.864;60.554;2022-11-15T04:53:18;76110.69;;;-143.60;75.08
68329;BME280;55182;56.864;60.554;2022-11-15T04:56:02;76120.72;;;-143.60;74.04
68329;BME280;55182;56.864;60.554;2022-11-15T04:58:48;76114.69;;;-143.60;75.31
68329;BME280;55182;56.864;60.554;2022-11-15T05:01:32;76106.66;;;-143.60;74.59
68329;BME280;55182;56.864;60.554;2022-11-15T05:04:16;76114.69;;;-143.60;74.85
68329;BME280;55182;56.864;60.554;2022-11-15T05:07:00;76110.69;;;-143.60;73.42
68329;BME280;55182;56.864;60.554;2022-11-15T05:09:44;76114.69;;;-143.60;73.28
68329;BME280;55182;56.864;60.554;2022-11-15T05:12:28;76118.72;;;-143.60;73.59
68329;BME280;55182;56.864;60.554;2022-11-15T05:15:12;76124.75;;;-143.60;73.24
68329;BME280;55182;56.864;60.554;2022-11-15T05:17:59;76142.81;;;-143.60;73.42
68329;BME280;55182;56.864;60.554;2022-11-15T05:20:43;76156.91;;;-143.60;72.78
68329;BME280;55182;56.864;60.554;2022-11-15T05:23:27;76162.91;;;-143.60;72.48
68329;BME280;55182;56.864;60.554;2022-11-15T05:26:11;76156.91;;;-143.60;73.04
68329;BME280;55182;56.864;60.554;2022-11-15T05:28:55;76132.78;;;-143.60;73.25
68329;BME280;55182;56.864;60.554;2022-11-15T05:31:40;76152.88;;;-143.60;72.82
68329;BME280;55182;56.864;60.554;2022-11-15T05:34:24;76146.84;;;-143.60;72.62
68329;BME280;55182;56.864;60.554;2022-11-15T05:37:08;76140.81;;;-143.60;72.58
68329;BME280;55182;56.864;60.554;2022-11-15T05:39:52;76130.78;;;-143.60;72.14
68329;BME280;55182;56.864;60.554;2022-11-15T05:42:35;76158.91;;;-143.60;72.98
68329;BME280;55182;56.864;60.554;2022-11-15T05:45:19;76152.88;;;-143.60;73.12
68329;BME280;55182;56.864;60.554;2022-11-15T05:48:04;76156.91;;;-143.60;73.09
68329;BME280;55182;56.864;60.554;2022-11-15T05:50:50;76154.88;;;-143.60;73.47
68329;BME280;55182;56.864;60.554;2022-11-15T05:53:34;76170.97;;;-143.60;73.27
68329;BME280;55182;56.864;60.554;2022-11-15T05:56:18;76170.97;;;-143.60;73.55
68329;BME280;55182;56.864;60.554;2022-11-15T05:59:02;76187.03;;;-143.60;72.69
68329;BME280;55182;56.864;60.554;2022-11-15T06:01:47;76187.03;;;-143.60;73.88
68329;BME280;55182;56.864;60.554;2022-11-15T06:04:30;76195.06;;;-143.60;74.25
68329;BME280;55182;56.864;60.554;2022-11-15T06:07:14;76197.09;;;-143.60;73.96
68329;BME280;55182;56.864;60.554;2022-11-15T06:09:58;76215.16;;;-143.60;72.64
68329;BME280;55182;56.864;60.554;2022-11-15T06:12:42;76239.28;;;-143.60;73.15
68329;BME280;55182;56.864;60.554;2022-11-15T06:15:26;76247.31;;;-143.60;73.82
68329;BME280;55182;56.864;60.554;2022-11-15T06:18:10;76241.28;;;-143.60;74.62
68329;BME280;55182;56.864;60.554;2022-11-15T06:20:57;76239.28;;;-143.60;73.88
68329;BME280;55182;56.864;60.554;2022-11-15T06:23:41;76251.34;;;-143.60;73.34
68329;BME280;55182;56.864;60.554;2022-11-15T06:26:25;76271.44;;;-143.60;73.55
68329;BME280;55182;56.864;60.554;2022-11-15T06:29:09;76283.50;;;-143.60;73.35
68329;BME280;55182;56.864;60.554;2022-11-15T06:31:53;76295.56;;;-143.60;73.10
68329;BME280;55182;56.864;60.554;2022-11-15T06:34:37;76293.53;;;-143.60;73.78
68329;BME280;55182;56.864;60.554;2022-11-15T06:37:21;76297.56;;;-143.60;73.38
68329;BME280;55182;56.864;60.554;2022-11-15T06:40:05;76299.56;;;-143.60;73.04
68329;BME280;55182;56.864;60.554;2022-11-15T06:42:49;76295.56;;;-143.60;73.81
68329;BME280;55182;56.864;60.554;2022-11-15T06:45:33;76279.47;;;-143.60;73.83
68329;BME280;55182;56.864;60.554;2022-11-15T06:48:17;76247.31;;;-143.60;74.23
68329;BME280;55182;56.864;60.554;2022-11-15T06:51:02;76227.22;;;-143.60;73.86
68329;BME280;55182;56.864;60.554;2022-11-15T06:53:47;76221.19;;;-143.60;72.50
68329;BME280;55182;56.864;60.554;2022-11-15T06:56:31;76231.25;;;-143.60;72.20
68329;BME280;55182;56.864;60.554;2022-11-15T06:59:15;76237.28;;;-143.60;72.65
68329;BME280;55182;56.864;60.554;2022-11-15T07:01:58;76223.22;;;-143.60;72.93
68329;BME280;55182;56.864;60.554;2022-11-15T07:04:43;76215.16;;;-143.60;73.03
68329;BME280;55182;56.864;60.554;2022-11-15T07:07:26;76195.06;;;-143.60;73.48
68329;BME280;55182;56.864;60.554;2022-11-15T07:10:10;76187.03;;;-143.60;72.96
68329;BME280;55182;56.864;60.554;2022-11-15T07:12:55;76166.94;;;-143.60;72.76
68329;BME280;55182;56.864;60.554;2022-11-15T07:15:39;76158.91;;;-143.60;72.00
68329;BME280;55182;56.864;60.554;2022-11-15T07:18:23;76181.00;;;-143.60;71.20
68329;BME280;55182;56.864;60.554;2022-11-15T07:21:10;76185.03;;;-143.60;71.14
68329;BME280;55182;56.864;60.554;2022-11-15T07:23:54;76166.94;;;-143.60;70.82
68329;BME280;55182;56.864;60.554;2022-11-15T07:26:38;76199.09;;;-143.60;71.29
68329;BME280;55182;56.864;60.554;2022-11-15T07:29:22;76211.16;;;-143.60;71.28
68329;BME280;55182;56.864;60.554;2022-11-15T07:32:05;76207.13;;;-143.60;71.03
68329;BME280;55182;56.864;60.554;2022-11-15T07:34:49;76201.09;;;-143.60;70.48
68329;BME280;55182;56.864;60.554;2022-11-15T07:37:33;76187.03;;;-143.60;70.43
68329;BME280;55182;56.864;60.554;2022-11-15T07:40:17;76207.13;;;-143.60;70.98
68329;BME280;55182;56.864;60.554;2022-11-15T07:43:02;76166.94;;;-143.60;70.36
68329;BME280;55182;56.864;60.554;2022-11-15T07:45:46;76185.03;;;-143.60;70.08
68329;BME280;55182;56.864;60.554;2022-11-15T07:48:30;76158.91;;;-143.60;70.17
68329;BME280;55182;56.864;60.554;2022-11-15T07:51:15;76172.97;;;-143.60;70.51
68329;BME280;55182;56.864;60.554;2022-11-15T07:53:59;76154.88;;;-143.60;70.48
68329;BME280;55182;56.864;60.554;2022-11-15T07:56:43;76138.81;;;-143.60;69.91
68329;BME280;55182;56.864;60.554;2022-11-15T07:59:27;76126.75;;;-143.60;69.97
68329;BME280;55182;56.864;60.554;2022-11-15T08:02:11;76118.72;;;-143.60;69.85
68329;BME280;55182;56.864;60.554;2022-11-15T08:04:55;76112.69;;;-143.60;69.96
68329;BME280;55182;56.864;60.554;2022-11-15T08:07:39;76108.66;;;-143.60;69.31
68329;BME280;55182;56.864;60.554;2022-11-15T08:10:24;76104.66;;;-143.60;69.27
68329;BME280;55182;56.864;60.554;2022-11-15T08:13:09;76102.63;;;-143.60;69.07
68329;BME280;55182;56.864;60.554;2022-11-15T08:16:01;76104.66;;;-143.60;70.02
68329;BME280;55182;56.864;60.554;2022-11-15T08:18:45;76102.63;;;-143.60;70.61
68329;BME280;55182;56.864;60.554;2022-11-15T08:21:29;76104.66;;;-143.60;70.04
68329;BME280;55182;56.864;60.554;2022-11-15T08:24:13;76114.69;;;-143.60;70.30
68329;BME280;55182;56.864;60.554;2022-11-15T08:26:57;76114.69;;;-143.60;70.60
68329;BME280;55182;56.864;60.554;2022-11-15T08:29:42;76128.75;;;-143.60;69.43
68329;BME280;55182;56.864;60.554;2022-11-15T08:32:26;76154.88;;;-143.60;69.26
68329;BME280;55182;56.864;60.554;2022-11-15T08:35:10;76179.00;;;-143.60;69.34
68329;BME280;55182;56.864;60.554;2022-11-15T08:37:54;76189.03;;;-143.60;70.19
68329;BME280;55182;56.864;60.554;2022-11-15T08:40:38;76179.00;;;-143.60;70.99
68329;BME280;55182;56.864;60.554;2022-11-15T08:43:22;76183.03;;;-143.60;70.51
68329;BME280;55182;56.864;60.554;2022-11-15T08:46:07;76172.97;;;-143.60;70.52
68329;BME280;55182;56.864;60.554;2022-11-15T08:48:52;76156.91;;;-143.60;70.79
68329;BME280;55182;56.864;60.554;2022-11-15T08:51:36;76138.81;;;-143.60;70.97
68329;BME280;55182;56.864;60.554;2022-11-15T08:54:20;76126.75;;;-143.60;71.34
68329;BME280;55182;56.864;60.554;2022-11-15T08:57:04;76106.66;;;-143.60;71.07
68329;BME280;55182;56.864;60.554;2022-11-15T08:59:48;76110.69;;;-143.60;70.30
68329;BME280;55182;56.864;60.554;2022-11-15T09:02:32;76132.78;;;-143.60;70.55
68329;BME280;55182;56.864;60.554;2022-11-15T09:05:16;76126.75;;;-143.60;71.09
68329;BME280;55182;56.864;60.554;2022-11-15T09:08:00;76122.72;;;-143.60;71.24
68329;BME280;55182;56.864;60.554;2022-11-15T09:10:44;76126.75;;;-143.60;71.84
68329;BME280;55182;56.864;60.554;2022-11-15T09:13:28;76116.69;;;-143.60;72.81
68329;BME280;55182;56.864;60.554;2022-11-15T09:16:12;76102.63;;;-143.60;73.36
68329;BME280;55182;56.864;60.554;2022-11-15T09:18:56;76094.59;;;-143.60;72.21
68329;BME280;55182;56.864;60.554;2022-11-15T09:21:40;76106.66;;;-143.60;71.48
68329;BME280;55182;56.864;60.554;2022-11-15T09:24:24;76120.72;;;-143.60;71.63
68329;BME280;55182;56.864;60.554;2022-11-15T09:27:08;76120.72;;;-143.60;70.43
68329;BME280;55182;56.864;60.554;2022-11-15T09:29:52;76158.91;;;-143.60;71.00
68329;BME280;55182;56.864;60.554;2022-11-15T09:32:36;76154.88;;;-143.60;70.95
68329;BME280;55182;56.864;60.554;2022-11-15T09:35:20;76189.03;;;-143.60;71.98
68329;BME280;55182;56.864;60.554;2022-11-15T09:38:04;76193.06;;;-143.60;71.82
68329;BME280;55182;56.864;60.554;2022-11-15T09:40:49;76199.09;;;-143.60;72.42
68329;BME280;55182;56.864;60.554;2022-11-15T09:43:39;76203.13;;;-143.60;72.60
68329;BME280;55182;56.864;60.554;2022-11-15T09:49:31;76199.09;;;-143.60;71.82
68329;BME280;55182;56.864;60.554;2022-11-15T09:52:23;76201.09;;;-143.60;72.16
68329;BME280;55182;56.864;60.554;2022-11-15T09:54:49;76203.13;;;-143.60;72.43
68329;BME280;55182;56.864;60.554;2022-11-15T09:57:16;76221.19;;;-143.60;72.09
68329;BME280;55182;56.864;60.554;2022-11-15T09:59:45;76225.22;;;-143.60;72.69
68329;BME280;55182;56.864;60.554;2022-11-15T10:04:56;76219.19;;;-143.60;72.21
68329;BME280;55182;56.864;60.554;2022-11-15T10:07:24;76215.16;;;-143.60;72.34
68329;BME280;55182;56.864;60.554;2022-11-15T10:12:16;76203.13;;;-143.60;72.38
68329;BME280;55182;56.864;60.554;2022-11-15T10:14:42;76189.03;;;-143.60;72.73
68329;BME280;55182;56.864;60.554;2022-11-15T10:17:18;76197.09;;;-143.60;72.44
68329;BME280;55182;56.864;60.554;2022-11-15T10:25:09;76191.06;;;-143.60;73.36
68329;BME280;55182;56.864;60.554;2022-11-15T10:27:35;76181.00;;;-143.60;73.53
68329;BME280;55182;56.864;60.554;2022-11-15T10:30:01;76187.03;;;-143.60;73.49
68329;BME280;55182;56.864;60.554;2022-11-15T10:32:28;76183.03;;;-143.60;73.25
68329;BME280;55182;56.864;60.554;2022-11-15T10:34:55;76177.00;;;-143.60;74.10
68329;BME280;55182;56.864;60.554;2022-11-15T10:37:30;76174.97;;;-143.60;73.40
68329;BME280;55182;56.864;60.554;2022-11-15T10:40:03;76179.00;;;-143.60;73.69
68329;BME280;55182;56.864;60.554;2022-11-15T10:42:29;76179.00;;;-143.60;73.64
68329;BME280;55182;56.864;60.554;2022-11-15T10:44:54;76181.00;;;-143.60;73.72
68329;BME280;55182;56.864;60.554;2022-11-15T10:47:27;76185.03;;;-143.60;73.75
68329;BME280;55182;56.864;60.554;2022-11-15T10:49:57;76191.06;;;-143.60;74.40
68329;BME280;55182;56.864;60.554;2022-11-15T10:52:22;76181.00;;;-143.60;74.66
68329;BME280;55182;56.864;60.554;2022-11-15T10:54:49;76170.97;;;-143.60;74.76
68329;BME280;55182;56.864;60.554;2022-11-15T10:57:16;76166.94;;;-143.60;75.13
68329;BME280;55182;56.864;60.554;2022-11-15T10:59:46;76164.94;;;-143.60;74.93
68329;BME280;55182;56.864;60.554;2022-11-15T11:02:27;76160.91;;;-143.60;75.44
68329;BME280;55182;56.864;60.554;2022-11-15T11:04:53;76158.91;;;-143.60;76.07
68329;BME280;55182;56.864;60.554;2022-11-15T11:07:23;76152.88;;;-143.60;76.26
68329;BME280;55182;56.864;60.554;2022-11-15T11:09:56;76154.88;;;-143.60;75.76
68329;BME280;55182;56.864;60.554;2022-11-15T11:12:26;76158.91;;;-143.60;76.18
68329;BME280;55182;56.864;60.554;2022-11-15T11:14:52;76158.91;;;-143.60;76.46
68329;BME280;55182;56.864;60.554;2022-11-15T11:17:32;76162.91;;;-143.60;76.37
68329;BME280;55182;56.864;60.554;2022-11-15T11:25:21;76150.88;;;-143.60;78.04
68329;BME280;55182;56.864;60.554;2022-11-15T11:28:01;76158.91;;;-143.60;77.73
68329;BME280;55182;56.864;60.554;2022-11-15T11:33:04;76168.94;;;-143.60;77.76
68329;BME280;55182;56.864;60.554;2022-11-15T11:35:39;76187.03;;;-143.60;77.19
68329;BME280;55182;56.864;60.554;2022-11-15T11:40:59;76174.97;;;-143.60;75.09
68329;BME280;55182;56.864;60.554;2022-11-15T11:45:58;76223.22;;;-143.60;72.38
68329;BME280;55182;56.864;60.554;2022-11-15T11:51:00;76245.31;;;-143.60;73.30
68329;BME280;55182;56.864;60.554;2022-11-15T11:53:34;76253.34;;;-143.60;73.46
68329;BME280;55182;56.864;60.554;2022-11-15T11:56:04;76275.47;;;-143.60;73.59
68329;BME280;55182;56.864;60.554;2022-11-15T12:06:05;76301.59;;;-143.60;73.44
68329;BME280;55182;56.864;60.554;2022-11-15T12:08:43;76295.56;;;-143.60;73.88
68329;BME280;55182;56.864;60.554;2022-11-15T12:13:36;76331.72;;;-143.60;74.87
68329;BME280;55182;56.864;60.554;2022-11-15T12:18:36;76319.66;;;-143.60;75.55
68329;BME280;55182;56.864;60.554;2022-11-15T12:21:04;76325.69;;;-143.60;75.97
68329;BME280;55182;56.864;60.554;2022-11-15T12:23:32;76335.75;;;-143.60;76.13
68329;BME280;55182;56.864;60.554;2022-11-15T12:26:04;76323.69;;;-143.60;76.30
68329;BME280;55182;56.864;60.554;2022-11-15T12:31:03;76327.69;;;-143.60;76.52
68329;BME280;55182;56.864;60.554;2022-11-15T12:33:31;76331.72;;;-143.60;76.23
68329;BME280;55182;56.864;60.554;2022-11-15T12:35:59;76335.75;;;-143.60;76.30
68329;BME280;55182;56.864;60.554;2022-11-15T12:41:12;76331.72;;;-143.60;76.76
68329;BME280;55182;56.864;60.554;2022-11-15T12:43:39;76329.72;;;-143.60;76.32
68329;BME280;55182;56.864;60.554;2022-11-15T12:46:05;76327.69;;;-143.60;76.29
68329;BME280;55182;56.864;60.554;2022-11-15T12:51:02;76327.69;;;-143.60;76.33
68329;BME280;55182;56.864;60.554;2022-11-15T12:53:31;76333.72;;;-143.60;76.54
68329;BME280;55182;56.864;60.554;2022-11-15T13:01:10;76341.78;;;-143.60;77.64
68329;BME280;55182;56.864;60.554;2022-11-15T13:03:36;76333.72;;;-143.60;78.28
68329;BME280;55182;56.864;60.554;2022-11-15T13:06:36;76335.75;;;-143.60;78.46
68329;BME280;55182;56.864;60.554;2022-11-15T13:09:03;76331.72;;;-143.60;77.73
68329;BME280;55182;56.864;60.554;2022-11-15T13:11:48;76327.69;;;-143.60;77.58
68329;BME280;55182;56.864;60.554;2022-11-15T13:16:58;76333.72;;;-143.60;76.87
68329;BME280;55182;56.864;60.554;2022-11-15T13:19:23;76341.78;;;-143.60;76.82
68329;BME280;55182;56.864;60.554;2022-11-15T13:21:49;76323.69;;;-143.60;76.94
68329;BME280;55182;56.864;60.554;2022-11-15T13:24:15;76351.81;;;-143.60;77.10
68329;BME280;55182;56.864;60.554;2022-11-15T13:26:41;76343.78;;;-143.60;77.35
68329;BME280;55182;56.864;60.554;2022-11-15T13:29:16;76355.84;;;-143.60;77.60
68329;BME280;55182;56.864;60.554;2022-11-15T13:31:43;76347.81;;;-143.60;77.54
68329;BME280;55182;56.864;60.554;2022-11-15T13:36:53;76349.81;;;-143.60;77.12
68329;BME280;55182;56.864;60.554;2022-11-15T13:41:50;76351.81;;;-143.60;77.03
68329;BME280;55182;56.864;60.554;2022-11-15T13:44:23;76357.84;;;-143.60;76.09
68329;BME280;55182;56.864;60.554;2022-11-15T13:47:00;76373.94;;;-143.60;75.52
68329;BME280;55182;56.864;60.554;2022-11-15T13:49:28;76379.94;;;-143.60;75.65
68329;BME280;55182;56.864;60.554;2022-11-15T13:51:54;76388.00;;;-143.60;75.78
68329;BME280;55182;56.864;60.554;2022-11-15T13:57:02;76400.06;;;-143.60;75.46
68329;BME280;55182;56.864;60.554;2022-11-15T13:59:29;76351.81;;;-143.60;75.88
68329;BME280;55182;56.864;60.554;2022-11-15T14:01:56;76388.00;;;-143.60;76.20
68329;BME280;55182;56.864;60.554;2022-11-15T14:04:23;76396.03;;;-143.60;75.95
68329;BME280;55182;56.864;60.554;2022-11-15T14:06:50;76388.00;;;-143.60;75.61
68329;BME280;55182;56.864;60.554;2022-11-15T14:11:50;76390.00;;;-143.60;76.03
68329;BME280;55182;56.864;60.554;2022-11-15T14:14:16;76385.97;;;-143.60;76.18
68329;BME280;55182;56.864;60.554;2022-11-15T14:16:45;76379.94;;;-143.60;75.43
68329;BME280;55182;56.864;60.554;2022-11-15T14:19:13;76367.91;;;-143.60;75.55
68329;BME280;55182;56.864;60.554;2022-11-15T14:22:07;76375.94;;;-143.60;75.22
68329;BME280;55182;56.864;60.554;2022-11-15T14:24:23;76369.91;;;-143.60;75.16
68329;BME280;55182;56.864;60.554;2022-11-15T14:26:55;76367.91;;;-143.60;75.18
68329;BME280;55182;56.864;60.554;2022-11-15T14:31:49;76347.81;;;-143.60;75.02
68329;BME280;55182;56.864;60.554;2022-11-15T14:34:15;76371.91;;;-143.60;75.45
68329;BME280;55182;56.864;60.554;2022-11-15T14:36:42;76383.97;;;-143.60;76.10
68329;BME280;55182;56.864;60.554;2022-11-15T14:39:07;76371.91;;;-143.60;75.61
68329;BME280;55182;56.864;60.554;2022-11-15T14:41:36;76383.97;;;-143.60;75.77
68329;BME280;55182;56.864;60.554;2022-11-15T14:44:02;76377.94;;;-143.60;76.15
68329;BME280;55182;56.864;60.554;2022-11-15T14:46:27;76357.84;;;-143.60;76.31
68329;BME280;55182;56.864;60.554;2022-11-15T14:48:52;76383.97;;;-143.60;76.56
68329;BME280;55182;56.864;60.554;2022-11-15T14:51:18;76383.97;;;-143.60;77.03
68329;BME280;55182;56.864;60.554;2022-11-15T14:53:44;76361.88;;;-143.60;76.36
68329;BME280;55182;56.864;60.554;2022-11-15T14:56:10;76383.97;;;-143.60;76.27
68329;BME280;55182;56.864;60.554;2022-11-15T14:58:35;76398.03;;;-143.60;76.09
68329;BME280;55182;56.864;60.554;2022-11-15T15:01:21;76394.03;;;-143.60;76.22
68329;BME280;55182;56.864;60.554;2022-11-15T15:03:47;76398.03;;;-143.60;76.51
68329;BME280;55182;56.864;60.554;2022-11-15T15:06:12;76402.06;;;-143.60;76.32
68329;BME280;55182;56.864;60.554;2022-11-15T15:08:38;76398.03;;;-143.60;76.59
68329;BME280;55182;56.864;60.554;2022-11-15T15:11:06;76408.09;;;-143.60;76.15
68329;BME280;55182;56.864;60.554;2022-11-15T15:13:35;76404.06;;;-143.60;76.35
68329;BME280;55182;56.864;60.554;2022-11-15T15:16:00;76404.06;;;-143.60;76.67
68329;BME280;55182;56.864;60.554;2022-11-15T15:18:26;76396.03;;;-143.60;76.93